Terminal Aerodrome Forecast
Issued by NWS Charleston, WV

Current Version | Previous Version | Graphics & Text | Print | Product List | Glossary On
Versions: 1 2 3 4 5 6 7 8 9 10 11 12 13 14 15 16 17 18 19 20 21 22 23
000
FTUS41 KRLX 220823 AAA
TAFBKW
TAF AMD
KBKW 220823Z 2208/2306 28007KT P6SM BKN035
     FM220900 30006KT P6SM BKN080
     FM221200 32010G18KT P6SM BKN025
     FM221300 33008G15KT P6SM BKN025
     FM221700 33007KT P6SM SCT025
     FM230300 36003KT P6SM FEW025=

USA.gov is the U.S. government's official web portal to all federal, state and local government web resources and services.